Flight Track Log - Related Links

Times and Time Zones

All times are in EST time to prevent confusion due to time zone crossing. See the AWE1821 flight status page for this flight to view local times or setup timezone preferences in your user account.

Time Position Orientation Groundspeed Altitude Reporting Facility
EST Latitude Longitude Course Direction KTS MPH feet Rate Location/Type
Mon 04:52:53 PM 35.1933 -80.9533 13° North 163 188 1,700  Level Atlanta Center
Mon 04:53:36 PM 35.1578 -80.9547 182° South 163 188 3,000 2,229 Climbing Atlanta Center
Mon 04:54:38 PM 35.1469 -81.0211 259° West 230 265 5,600 2,207 Climbing Atlanta Center
Mon 04:55:00 PM 35.3163 -81.1149 52° Northeast  Level FlightAware Approximate
Mon 04:55:03 PM 35.1414 -81.0492 256° West 239 275 6,200  Level Atlanta Center
Mon 04:56:00 PM 35.3964 -80.9891 52° Northeast  Level FlightAware Approximate
Mon 04:56:03 PM 35.1661 -81.1247 292° West 258 297 8,700  Level Atlanta Center
Mon 04:57:00 PM 35.5165 -80.9374 13° North  Level FlightAware Approximate
Mon 04:57:03 PM 35.2522 -81.1444 349° North 248 285 10,900  Level Atlanta Center
Mon 04:58:00 PM 35.6431 -80.9001 13° North  Level FlightAware Approximate
Mon 04:58:03 PM 35.3536 -81.1028 19° North 286 329 13,100  Level Atlanta Center
Mon 04:59:03 PM 35.4619 -81.1039 360° North 335 386 15,600 2,200 Climbing Atlanta Center
Mon 05:00:03 PM 35.5747 -81.1025 North 381 438 17,500 2,100 Climbing Atlanta Center
Mon 05:01:03 PM 35.7103 -81.1028 360° North 421 484 19,800 2,200 Climbing Atlanta Center
Mon 05:02:03 PM 35.8314 -81.1061 359° North 433 498 21,900 2,000 Climbing Atlanta Center
Mon 05:03:03 PM 35.9503 -81.1069 360° North 433 498 23,800 1,700 Climbing Atlanta Center
Mon 05:04:03 PM 36.0753 -81.1075 360° North 433 498 25,300 1,450 Climbing Atlanta Center
Mon 05:05:03 PM 36.2028 -81.1081 360° North 445 512 26,700 850 Climbing Atlanta Center
Mon 05:06:03 PM 36.3361 -81.1108 359° North 464 534 27,000 150 Climbing Atlanta Center
Mon 05:07:03 PM 36.4800 -81.1108 360° North 487 560 27,000  Level Atlanta Center
Mon 05:08:03 PM 36.6197 -81.1108 360° North 499 574 27,000 150 Level Atlanta Center
Mon 05:09:03 PM 36.7617 -81.1133 359° North 504 580 27,300 650 Climbing Atlanta Center
Mon 05:10:03 PM 36.9036 -81.1186 358° North 505 581 28,300 1,269 Climbing Atlanta Center
Mon 05:11:39 PM 37.1406 -81.1192 360° North 523 602 30,600 1,443 Climbing Indianapolis Center
Mon 05:12:41 PM 37.2800 -81.1197 360° North 513 590 32,100 1,355 Climbing Indianapolis Center
Mon 05:13:43 PM 37.4183 -81.1217 359° North 509 586 33,400 919 Climbing Indianapolis Center
Mon 05:14:45 PM 37.5553 -81.1222 360° North 505 581 34,000 293 Climbing Indianapolis Center
Mon 05:15:46 PM 37.7189 -81.1236 360° North 500 575 34,000  Level Indianapolis Center
Mon 05:16:48 PM 37.8492 -81.1483 351° North 485 558 34,000  Level Indianapolis Center
Mon 05:17:50 PM 37.9742 -81.1956 343° North 472 543 34,000  Level Indianapolis Center
Mon 05:18:52 PM 38.0997 -81.2425 344° North 469 540 34,000  Level Indianapolis Center
Mon 05:19:54 PM 38.2258 -81.2897 344° North 470 541 34,000  Level Indianapolis Center
Mon 05:20:56 PM 38.3522 -81.3372 344° North 472 543 34,000  Level Indianapolis Center
Mon 05:21:57 PM 38.5036 -81.3950 343° North 474 545 34,000  Level Indianapolis Center
Mon 05:22:59 PM 38.6383 -81.4344 347° North 481 554 34,000  Level Indianapolis Center
Mon 05:24:01 PM 38.7753 -81.4708 348° North 483 556 34,000  Level Indianapolis Center
Mon 05:25:03 PM 38.8911 -81.5003 349° North 494 568 34,000  Level Indianapolis Center
Mon 05:26:04 PM 39.0550 -81.5428 349° North 500 575 34,000  Level Indianapolis Center
Mon 05:27:06 PM 39.1936 -81.5783 349° North 506 582 34,000  Level Indianapolis Center
Mon 05:28:08 PM 39.3300 -81.6142 349° North 501 577 34,000  Level Indianapolis Center
Mon 05:29:10 PM 39.4672 -81.6508 348° North 503 579 34,000  Level Indianapolis Center
Mon 05:30:12 PM 39.6061 -81.6867 349° North 505 581 34,000  Level Indianapolis Center
Mon 05:31:14 PM 39.7417 -81.7222 349° North 505 581 34,000  Level Indianapolis Center
Mon 05:32:15 PM 39.8792 -81.7592 348° North 505 581 34,000  Level Indianapolis Center
Mon 05:33:17 PM 40.0458 -81.8039 348° North 510 587 34,000  Level Indianapolis Center
Mon 05:34:19 PM 40.1858 -81.8408 349° North 515 593 34,000 -532 Level Indianapolis Center
Mon 05:35:21 PM 40.3169 -81.8764 348° North 515 593 32,900 -1,790 Descending Indianapolis Center
Mon 05:36:23 PM 40.4825 -81.9206 349° North 514 592 30,300 -1,403 Descending Indianapolis Center
Mon 05:37:25 PM 40.6225 -81.9603 348° North 510 587 30,000 -453 Descending Indianapolis Center
Mon 05:38:09 PM 40.7164 -81.9847 349° North 507 583 29,500 -1,358 Descending Cleveland Center
Mon 05:39:11 PM 40.8550 -82.0219 349° North 503 579 27,600 -1,839 Descending Cleveland Center
Mon 05:40:13 PM 40.9906 -82.0600 348° North 493 567 25,700 -1,742 Descending Cleveland Center
Mon 05:41:15 PM 41.1367 -82.0986 349° North 493 567 24,000 -1,258 Descending Cleveland Center
Mon 05:42:17 PM 41.2633 -82.1350 348° North 490 564 23,100 -1,742 Descending Cleveland Center
Mon 05:43:19 PM 41.3911 -82.2231 333° Northwest 432 497 20,400 -2,496 Descending Cleveland Center
Mon 05:44:22 PM 41.4608 -82.3372 309° West 395 455 17,900 -2,304 Descending Cleveland Center
Mon 05:45:24 PM 41.5300 -82.4511 309° West 390 449 15,600 -2,400 Descending Cleveland Center
Mon 05:45:32 PM 41.5378 -82.4681 302° West 385 443 15,100 -2,353 Descending Cleveland Center
Mon 05:46:15 PM 41.5847 -82.5464 309° West 383 441 13,600 -2,000 Descending Cleveland Center
Mon 05:46:26 PM 41.5975 -82.5639 314° West 385 443 13,300 -1,475 Descending Cleveland Center
Mon 05:47:16 PM 41.6536 -82.6642 307° West 378 435 12,100 -1,258 Descending Cleveland Center
Mon 05:47:28 PM 41.6606 -82.6697 329° Northwest 379 436 12,000 -100 Descending Cleveland Center
Mon 05:48:16 PM 41.7172 -82.7675 308° West 364 419 12,000  Level Cleveland Center
Mon 05:48:30 PM 41.7242 -82.7744 323° Northwest 367 422 12,000  Level Cleveland Center
Mon 05:49:17 PM 41.7978 -82.8675 317° Northwest 377 434 12,000  Level Cleveland Center
Mon 05:49:32 PM 41.8006 -82.8694 332° Northwest 374 430 12,000  Level Cleveland Center
Mon 05:50:18 PM 41.8747 -82.9589 318° Northwest 373 429 12,000  Level Cleveland Center
Mon 05:50:34 PM 41.8931 -82.9786 321° Northwest 370 426 12,000  Level Cleveland Center
Mon 05:51:19 PM 41.9458 -83.0442 317° Northwest 331 381 12,000  Level Cleveland Center
Mon 05:51:36 PM 41.9628 -83.0625 321° Northwest 341 392 12,000  Level Cleveland Center
Mon 05:52:20 PM 42.0150 -83.1267 318° Northwest 318 366 12,000  Level Cleveland Center
Mon 05:52:38 PM 42.0272 -83.1406 320° Northwest 319 367 12,000 -75 Level Cleveland Center
Mon 05:53:40 PM 42.0819 -83.2058 318° Northwest 269 310 11,900 -519 Descending Cleveland Center
Mon 05:54:22 PM 42.1386 -83.2111 356° North 255 293 11,100 -1,258 Descending Cleveland Center
Mon 05:54:42 PM 42.1561 -83.2081 North 251 289 10,600 -1,672 Descending Cleveland Center
Mon 05:55:23 PM 42.2036 -83.1808 23° Northeast 262 302 9,400 -1,742 Descending Cleveland Center
Mon 05:55:44 PM 42.2258 -83.1639 29° Northeast 259 298 8,800 -1,254 Descending Cleveland Center
Mon 05:56:30 PM 42.2725 -83.1283 29° Northeast 253 291 8,000 -968 Descending Cleveland Center
Mon 05:56:46 PM 42.2864 -83.1178 29° Northeast 255 293 7,800 -1,672 Descending Cleveland Center
Mon 05:57:31 PM 42.3306 -83.1108 North 192 221 6,300 -1,810 Descending Cleveland Center
Mon 05:57:49 PM 42.3400 -83.1164 337° Northwest 209 241 5,900 -2,143 Descending Cleveland Center
Mon 05:58:27 PM 42.3475 -83.1639 282° West 166 191 4,300 -2,032 Descending Cleveland Center
Mon 05:58:51 PM 42.3461 -83.1772 262° West 171 197 3,800 -1,279 Descending Cleveland Center
Mon 05:59:28 PM 42.3367 -83.2217 254° West 152 175 3,000 -774 Descending Cleveland Center
Mon 05:59:53 PM 42.3314 -83.2333 239° Southwest 162 186 3,000 -269 Level Cleveland Center
Mon 06:00:35 PM 42.3058 -83.2683 225° Southwest 150 173 2,700 -581 Descending Cleveland Center
Mon 06:00:55 PM 42.2964 -83.2786 219° Southwest 151 174 2,400 -689 Descending Cleveland Center
Mon 06:01:36 PM 42.2725 -83.2947 207° Southwest 118 136 2,000 -677 Descending Cleveland Center
Mon 06:01:57 PM 42.2656 -83.3006 212° Southwest 136 157 1,700 -689 Descending Cleveland Center
Mon 06:02:37 PM 42.2436 -83.3161 208° Southwest 121 139 1,300 -677 Descending Cleveland Center
Mon 06:02:59 PM 42.2361 -83.3219 210° Southwest 125 144 1,000 -286 Descending Cleveland Center
Mon 06:04:01 PM 42.2069 -83.3436 209° Southwest 124 143 900 -97 Descending Cleveland Center

Login

Don't have an account? Register now (free) for customized features, flight alerts, and more!